Time;durP1;ratioP1;P1;durP2;ratioP2;P2;SDS_P1;SDS_P2;PMS_P1;PMS_P2;Temp;Humidity;BMP_temperature;BMP_pressure;BME280_temperature;BME280_humidity;BME280_pressure;Samples;Min_cycle;Max_cycle;Signal;HPM_P1;HPM_P2
2021/05/28 00:02:10;;;;;;;;;;;9.20;91.90;;;;;;5052094;28;19950;-67
2021/05/28 00:04:36;;;;;;;;;;;9.30;92.00;;;;;;5052302;28;20552;-67
2021/05/28 00:07:02;;;;;;;;;;;9.40;92.00;;;;;;5052580;28;19917;-67
2021/05/28 00:09:27;;;;;;;;;;;9.40;92.00;;;;;;5052220;28;19974;-67
2021/05/28 00:11:53;;;;;;;;;;;9.40;91.90;;;;;;5052381;28;19943;-67
2021/05/28 00:14:19;;;;;;;;;;;9.40;91.90;;;;;;5051631;28;19921;-67
2021/05/28 00:16:44;;;;;;;;;;;9.40;92.00;;;;;;5052490;28;19970;-67
2021/05/28 00:19:10;;;;;;;;;;;9.50;92.00;;;;;;5050983;28;19924;-67
2021/05/28 00:21:35;;;;;;;;;;;9.50;92.00;;;;;;5051643;28;19966;-67
2021/05/28 00:24:02;;;;;;;;;;;9.50;91.80;;;;;;5051951;28;20016;-67
2021/05/28 00:26:27;;;;;;;;;;;9.40;91.70;;;;;;5052289;28;19956;-67
2021/05/28 00:28:53;;;;;;;;;;;9.40;91.70;;;;;;5050446;28;19955;-67
2021/05/28 00:31:19;;;;;;;;;;;9.30;91.70;;;;;;5052067;28;20377;-67
2021/05/28 00:33:45;;;;;;;;;;;9.30;91.70;;;;;;5049826;28;19913;-67
2021/05/28 00:36:10;;;;;;;;;;;9.10;91.70;;;;;;5050772;28;19940;-67
2021/05/28 00:38:36;;;;;;;;;;;9.10;91.80;;;;;;5051976;28;19924;-67
2021/05/28 00:41:02;;;;;;;;;;;9.10;91.90;;;;;;5051365;28;19924;-67
2021/05/28 00:43:27;;;;;;;;;;;9.00;91.80;;;;;;5051574;28;19923;-67
2021/05/28 00:45:53;;;;;;;;;;;9.00;91.90;;;;;;5051532;28;19913;-67
2021/05/28 00:48:19;;;;;;;;;;;8.90;91.80;;;;;;5050632;28;19917;-67
2021/05/28 00:50:44;;;;;;;;;;;8.90;91.90;;;;;;5051074;28;19912;-67
2021/05/28 00:53:10;;;;;;;;;;;8.80;91.90;;;;;;5051099;28;19916;-67
2021/05/28 00:55:36;;;;;;;;;;;8.80;92.10;;;;;;5051739;28;19963;-67
2021/05/28 00:58:01;;;;;;;;;;;8.80;92.00;;;;;;5051619;28;19917;-67
2021/05/28 01:00:28;;;;;;;;;;;8.70;92.30;;;;;;5050199;28;20443;-67
2021/05/28 01:02:54;;;;;;;;;;;8.80;92.10;;;;;;5051402;28;19927;-67
2021/05/28 01:05:20;;;;;;;;;;;8.70;92.10;;;;;;5051137;28;19921;-67
2021/05/28 01:07:46;;;;;;;;;;;8.70;92.10;;;;;;5051631;28;20396;-67
2021/05/28 01:10:12;;;;;;;;;;;8.70;92.00;;;;;;5050125;28;19928;-67
2021/05/28 01:12:38;;;;;;;;;;;8.60;92.00;;;;;;5049758;28;19940;-67
2021/05/28 01:15:06;;;;;;;;;;;8.60;92.10;;;;;;5049958;28;20376;-67
2021/05/28 01:17:31;;;;;;;;;;;8.60;92.20;;;;;;5033468;28;19923;-67
2021/05/28 01:19:57;;;;;;;;;;;8.60;92.20;;;;;;5050942;28;19917;-67
2021/05/28 01:22:23;;;;;;;;;;;8.60;92.30;;;;;;5051349;28;20007;-67
2021/05/28 01:24:49;;;;;;;;;;;8.60;92.30;;;;;;5049278;28;19924;-67
2021/05/28 01:27:16;;;;;;;;;;;8.50;92.30;;;;;;5051455;28;19970;-67
2021/05/28 01:29:41;;;;;;;;;;;8.50;92.40;;;;;;5051300;28;20339;-67
2021/05/28 01:32:07;;;;;;;;;;;8.50;92.40;;;;;;5049753;28;19917;-67
2021/05/28 01:34:32;;;;;;;;;;;8.50;92.50;;;;;;5051010;28;19924;-67
2021/05/28 01:37:00;;;;;;;;;;;8.60;92.70;;;;;;5050851;28;19923;-67
2021/05/28 01:39:26;;;;;;;;;;;8.50;92.40;;;;;;5051401;28;20360;-67
2021/05/28 01:41:51;;;;;;;;;;;8.50;92.50;;;;;;5051106;28;20433;-67
2021/05/28 01:44:17;;;;;;;;;;;8.50;92.50;;;;;;5050490;28;19916;-67
2021/05/28 01:46:43;;;;;;;;;;;8.40;92.40;;;;;;5051293;28;20373;-66
2021/05/28 01:49:09;;;;;;;;;;;8.40;92.40;;;;;;5050029;28;20063;-66
2021/05/28 01:51:34;;;;;;;;;;;8.40;92.50;;;;;;5050723;28;20422;-67
2021/05/28 01:54:00;;;;;;;;;;;8.40;92.40;;;;;;5049601;28;19917;-67
2021/05/28 01:56:26;;;;;;;;;;;8.40;92.40;;;;;;5050561;28;19917;-67
2021/05/28 01:58:52;;;;;;;;;;;8.30;92.40;;;;;;5051083;28;20011;-67
2021/05/28 02:01:18;;;;;;;;;;;8.30;92.50;;;;;;5052382;28;19927;-67
2021/05/28 02:03:43;;;;;;;;;;;8.20;92.80;;;;;;5054099;28;19917;-67
2021/05/28 02:06:09;;;;;;;;;;;8.20;92.60;;;;;;5070079;28;19921;-67
2021/05/28 02:08:34;;;;;;;;;;;8.20;92.70;;;;;;5054942;28;19921;-67
2021/05/28 02:11:00;;;;;;;;;;;8.20;92.60;;;;;;5036215;28;19958;-67
2021/05/28 02:13:26;;;;;;;;;;;8.20;92.50;;;;;;5054562;28;19924;-67
2021/05/28 02:15:51;;;;;;;;;;;8.10;92.60;;;;;;5069533;28;19916;-67
2021/05/28 02:18:17;;;;;;;;;;;8.10;92.70;;;;;;5054503;28;19917;-67
2021/05/28 02:20:42;;;;;;;;;;;8.10;92.70;;;;;;5054529;28;20007;-67
2021/05/28 02:23:08;;;;;;;;;;;8.10;92.70;;;;;;5053834;28;19929;-67
2021/05/28 02:25:34;;;;;;;;;;;8.10;92.60;;;;;;5054569;28;19944;-67
2021/05/28 02:27:59;;;;;;;;;;;8.00;92.60;;;;;;5055019;28;19921;-67
2021/05/28 02:30:25;;;;;;;;;;;8.00;92.60;;;;;;5054913;28;19956;-67
2021/05/28 02:32:50;;;;;;;;;;;8.00;92.70;;;;;;5053478;28;19970;-66
2021/05/28 02:35:16;;;;;;;;;;;8.00;92.70;;;;;;5069781;28;20062;-66
2021/05/28 02:37:42;;;;;;;;;;;7.90;92.70;;;;;;5053990;28;19917;-67
2021/05/28 02:40:08;;;;;;;;;;;7.90;92.80;;;;;;5055091;28;19917;-67
2021/05/28 02:42:34;;;;;;;;;;;7.90;92.80;;;;;;5069383;28;20304;-67
2021/05/28 02:44:59;;;;;;;;;;;7.90;92.80;;;;;;5036801;28;19963;-67
2021/05/28 02:47:25;;;;;;;;;;;7.90;92.80;;;;;;5055339;28;19948;-68
2021/05/28 02:49:51;;;;;;;;;;;7.90;92.90;;;;;;5069662;28;19917;-71
2021/05/28 02:52:17;;;;;;;;;;;7.80;92.80;;;;;;5037255;28;19917;-67
2021/05/28 02:54:42;;;;;;;;;;;7.80;92.80;;;;;;5054484;28;20316;-67
2021/05/28 02:57:08;;;;;;;;;;;7.80;92.80;;;;;;5054438;28;20401;-67
2021/05/28 02:59:34;;;;;;;;;;;7.80;92.90;;;;;;5054277;28;19974;-67
2021/05/28 03:02:01;;;;;;;;;;;7.80;93.00;;;;;;5053514;28;19931;-67
2021/05/28 03:04:26;;;;;;;;;;;7.80;92.90;;;;;;5070378;28;19916;-67
2021/05/28 03:06:52;;;;;;;;;;;7.80;92.90;;;;;;5036682;28;20296;-66
2021/05/28 03:09:17;;;;;;;;;;;7.70;93.00;;;;;;5068591;28;20436;-67
2021/05/28 03:11:43;;;;;;;;;;;7.70;93.10;;;;;;5052900;28;19928;-67
2021/05/28 03:14:08;;;;;;;;;;;7.80;93.00;;;;;;5067762;28;19999;-67
2021/05/28 03:16:34;;;;;;;;;;;7.80;93.00;;;;;;5053583;28;20369;-67
2021/05/28 03:19:07;;;;;;;;;;;7.80;93.10;;;;;;5053645;28;20058;-67
2021/05/28 03:23:59;;;;;;;;;;;7.80;93.10;;;;;;5053299;28;20397;-66
2021/05/28 03:26:25;;;;;;;;;;;7.80;93.20;;;;;;5053167;28;19916;-67
2021/05/28 03:28:52;;;;;;;;;;;7.90;93.20;;;;;;5052690;28;19939;-67
2021/05/28 03:31:17;;;;;;;;;;;7.90;93.10;;;;;;5053154;28;19955;-67
2021/05/28 03:33:43;;;;;;;;;;;7.90;93.10;;;;;;5052687;28;19968;-67
2021/05/28 03:36:09;;;;;;;;;;;7.90;93.20;;;;;;5053330;28;19921;-67
2021/05/28 03:38:35;;;;;;;;;;;7.90;93.20;;;;;;5051569;28;19917;-67
2021/05/28 03:41:00;;;;;;;;;;;7.90;93.20;;;;;;5051463;28;19936;-67
2021/05/28 03:43:26;;;;;;;;;;;8.00;93.50;;;;;;5053032;28;19967;-67
2021/05/28 03:45:52;;;;;;;;;;;8.10;93.60;;;;;;5051245;28;19917;-66
2021/05/28 03:48:18;;;;;;;;;;;8.20;93.50;;;;;;5053209;28;20007;-67
2021/05/28 03:50:43;;;;;;;;;;;8.20;93.30;;;;;;5052926;28;19917;-67
2021/05/28 03:53:09;;;;;;;;;;;8.30;93.30;;;;;;5052361;28;19928;-67
2021/05/28 03:55:34;;;;;;;;;;;8.30;93.40;;;;;;5051622;28;19917;-67
2021/05/28 03:58:00;;;;;;;;;;;8.40;93.50;;;;;;5051088;28;19917;-67
2021/05/28 04:00:26;;;;;;;;;;;8.50;93.50;;;;;;5068038;28;20366;-67
2021/05/28 04:02:52;;;;;;;;;;;8.60;93.60;;;;;;5068556;28;20007;-67
2021/05/28 04:05:17;;;;;;;;;;;8.60;93.50;;;;;;5052781;28;19916;-67
2021/05/28 04:07:43;;;;;;;;;;;8.70;93.40;;;;;;5053107;28;19917;-68
2021/05/28 04:10:09;;;;;;;;;;;8.80;93.20;;;;;;5046657;28;20264;-67
2021/05/28 04:12:35;;;;;;;;;;;8.80;93.20;;;;;;5073168;28;20289;-67
2021/05/28 04:15:02;;;;;;;;;;;8.80;93.20;;;;;;5042663;28;19923;-67
2021/05/28 04:17:28;;;;;;;;;;;8.90;93.30;;;;;;5034550;28;19917;-67
2021/05/28 04:19:53;;;;;;;;;;;8.90;93.30;;;;;;5031740;28;20278;-67
2021/05/28 04:22:19;;;;;;;;;;;8.90;93.10;;;;;;5032516;28;20333;-69
2021/05/28 04:24:45;;;;;;;;;;;8.90;92.90;;;;;;5030030;28;19928;-67
2021/05/28 04:27:11;;;;;;;;;;;8.80;92.80;;;;;;5031969;28;19913;-68
2021/05/28 04:29:37;;;;;;;;;;;8.80;92.90;;;;;;5032674;28;19917;-67
2021/05/28 04:32:03;;;;;;;;;;;8.80;93.10;;;;;;5032410;28;19939;-67
2021/05/28 04:34:28;;;;;;;;;;;8.80;93.30;;;;;;5030803;28;19975;-67
2021/05/28 04:36:54;;;;;;;;;;;8.90;93.50;;;;;;5031774;28;19983;-67
2021/05/28 04:39:19;;;;;;;;;;;8.90;93.50;;;;;;5033214;28;19924;-67
2021/05/28 04:41:45;;;;;;;;;;;9.10;93.50;;;;;;5051784;28;19928;-67
2021/05/28 04:44:11;;;;;;;;;;;9.10;93.40;;;;;;5051495;28;20442;-67
2021/05/28 04:46:36;;;;;;;;;;;9.20;93.20;;;;;;5067325;28;19967;-67
2021/05/28 04:49:02;;;;;;;;;;;9.20;93.30;;;;;;5051887;28;19924;-67
2021/05/28 04:51:28;;;;;;;;;;;9.30;93.40;;;;;;5051519;28;19924;-67
2021/05/28 04:53:53;;;;;;;;;;;9.40;93.30;;;;;;5050143;28;19959;-67
2021/05/28 04:56:19;;;;;;;;;;;9.50;93.30;;;;;;5068534;28;19920;-67
2021/05/28 04:58:44;;;;;;;;;;;9.60;93.40;;;;;;5040328;28;19923;-67
2021/05/28 05:01:10;;;;;;;;;;;9.70;93.30;;;;;;5042779;28;19925;-67
2021/05/28 05:03:36;;;;;;;;;;;9.70;93.20;;;;;;5041908;28;19992;-67
2021/05/28 05:06:02;;;;;;;;;;;9.80;93.20;;;;;;5041276;28;19917;-67
2021/05/28 05:08:27;;;;;;;;;;;9.80;93.20;;;;;;5041000;28;20312;-67
2021/05/28 05:10:54;;;;;;;;;;;9.90;93.10;;;;;;5033848;28;19921;-67
2021/05/28 05:13:20;;;;;;;;;;;10.10;93.40;;;;;;5031333;28;19975;-67
2021/05/28 05:15:46;;;;;;;;;;;10.20;93.40;;;;;;5030985;28;19913;-65
2021/05/28 05:18:11;;;;;;;;;;;10.40;93.40;;;;;;5032056;28;19925;-68
2021/05/28 05:20:37;;;;;;;;;;;10.50;93.30;;;;;;5035869;28;19925;-67
2021/05/28 05:23:03;;;;;;;;;;;10.60;93.20;;;;;;5035403;28;19964;-67
2021/05/28 05:25:28;;;;;;;;;;;10.80;93.20;;;;;;5038835;28;20344;-67
2021/05/28 05:27:54;;;;;;;;;;;11.10;93.10;;;;;;5038552;28;20016;-68
2021/05/28 05:30:20;;;;;;;;;;;11.20;93.30;;;;;;5036310;28;20405;-67
2021/05/28 05:32:46;;;;;;;;;;;11.50;93.30;;;;;;5039667;28;19952;-68
2021/05/28 05:35:11;;;;;;;;;;;11.60;93.10;;;;;;5050724;28;19917;-68
2021/05/28 05:37:37;;;;;;;;;;;11.80;92.80;;;;;;5040850;28;19929;-68
2021/05/28 05:40:04;;;;;;;;;;;12.00;93.10;;;;;;5052504;28;19943;-68
2021/05/28 05:42:29;;;;;;;;;;;12.30;93.00;;;;;;5050794;28;20424;-67
2021/05/28 05:44:55;;;;;;;;;;;12.60;93.00;;;;;;5036698;28;19917;-68
2021/05/28 05:47:20;;;;;;;;;;;12.70;92.60;;;;;;5049776;28;19932;-68
2021/05/28 05:49:46;;;;;;;;;;;12.70;92.00;;;;;;5054574;28;19924;-68
2021/05/28 05:52:11;;;;;;;;;;;12.60;92.20;;;;;;5055073;28;19917;-68
2021/05/28 05:54:37;;;;;;;;;;;12.60;92.20;;;;;;5054315;28;20000;-67
2021/05/28 05:57:03;;;;;;;;;;;12.50;91.80;;;;;;5055045;28;19978;-68
2021/05/28 05:59:29;;;;;;;;;;;12.40;91.40;;;;;;5054140;28;19921;-68
2021/05/28 06:01:54;;;;;;;;;;;12.20;91.20;;;;;;5054737;28;19928;-69
2021/05/28 06:04:20;;;;;;;;;;;12.00;91.20;;;;;;5047944;28;20312;-68
2021/05/28 06:06:45;;;;;;;;;;;11.80;91.60;;;;;;5055285;28;19921;-68
2021/05/28 06:09:12;;;;;;;;;;;11.80;91.50;;;;;;5054157;28;20351;-68
2021/05/28 06:11:39;;;;;;;;;;;11.70;91.40;;;;;;5054381;28;19921;-66
2021/05/28 06:14:08;;;;;;;;;;;11.60;91.50;;;;;;5053726;28;19917;-66
2021/05/28 06:16:33;;;;;;;;;;;11.60;91.70;;;;;;5053375;28;19916;-66
2021/05/28 06:22:27;;;;;;;;;;;11.70;91.60;;;;;;5049904;28;20313;-67
2021/05/28 06:24:53;;;;;;;;;;;11.70;91.50;;;;;;5048498;28;19916;-65
2021/05/28 06:27:19;;;;;;;;;;;11.70;91.40;;;;;;5053754;28;19917;-66
2021/05/28 06:29:45;;;;;;;;;;;11.80;91.40;;;;;;5036967;28;19927;-66
2021/05/28 06:32:10;;;;;;;;;;;11.90;91.50;;;;;;5054748;28;20355;-66
2021/05/28 06:34:37;;;;;;;;;;;12.00;91.30;;;;;;5046702;28;19971;-66
2021/05/28 06:37:04;;;;;;;;;;;12.10;91.50;;;;;;5049744;28;19917;-66
2021/05/28 06:39:30;;;;;;;;;;;12.30;91.10;;;;;;5035596;28;19917;-67
2021/05/28 06:41:55;;;;;;;;;;;12.30;90.60;;;;;;5043296;28;20250;-65
2021/05/28 06:44:23;;;;;;;;;;;12.20;90.50;;;;;;5069304;28;19952;-66
2021/05/28 06:46:53;;;;;;;;;;;12.30;90.80;;;;;;5048546;28;19948;-68
2021/05/28 06:49:19;;;;;;;;;;;12.40;90.60;;;;;;5047157;28;19924;-67
2021/05/28 06:51:46;;;;;;;;;;;12.40;90.40;;;;;;5049257;28;19917;-67
2021/05/28 06:54:12;;;;;;;;;;;12.40;90.20;;;;;;5028060;28;20059;-66
2021/05/28 06:56:38;;;;;;;;;;;12.40;90.20;;;;;;5054407;28;20384;-67
2021/05/28 06:59:06;;;;;;;;;;;12.40;90.00;;;;;;5052588;28;19928;-66
2021/05/28 07:01:32;;;;;;;;;;;12.40;89.60;;;;;;5048671;28;20293;-68
2021/05/28 07:04:02;;;;;;;;;;;12.30;89.50;;;;;;5037290;28;19925;-68
2021/05/28 07:06:29;;;;;;;;;;;12.30;89.50;;;;;;5030264;28;19924;-67
2021/05/28 07:08:55;;;;;;;;;;;12.30;88.90;;;;;;5019347;28;19929;-66
2021/05/28 07:11:21;;;;;;;;;;;12.20;89.20;;;;;;5039203;28;19921;-67
2021/05/28 07:13:46;;;;;;;;;;;12.20;89.40;;;;;;5043600;28;19991;-67
2021/05/28 07:16:12;;;;;;;;;;;12.20;89.40;;;;;;5047065;28;19921;-68
2021/05/28 07:18:37;;;;;;;;;;;12.30;89.20;;;;;;5065261;28;19921;-68
2021/05/28 07:21:03;;;;;;;;;;;12.30;88.30;;;;;;5049138;28;19996;-68
2021/05/28 07:23:29;;;;;;;;;;;12.20;88.30;;;;;;5037844;28;19924;-67
2021/05/28 07:25:55;;;;;;;;;;;12.20;87.90;;;;;;5041051;28;19929;-67
2021/05/28 07:28:21;;;;;;;;;;;12.10;88.10;;;;;;5042079;28;19978;-67
2021/05/28 07:30:47;;;;;;;;;;;12.10;88.30;;;;;;5045985;28;19917;-66
2021/05/28 07:33:13;;;;;;;;;;;12.10;87.90;;;;;;5042430;28;19917;-66
2021/05/28 07:35:39;;;;;;;;;;;12.10;88.10;;;;;;5039997;28;19924;-68
2021/05/28 07:38:05;;;;;;;;;;;12.10;87.50;;;;;;5050102;28;20293;-67
2021/05/28 07:40:31;;;;;;;;;;;12.10;87.20;;;;;;5032716;28;20050;-67
2021/05/28 07:42:57;;;;;;;;;;;12.00;87.60;;;;;;5039147;28;19921;-67
2021/05/28 07:45:23;;;;;;;;;;;12.00;87.20;;;;;;5042056;28;20316;-67
2021/05/28 07:47:48;;;;;;;;;;;12.00;87.30;;;;;;5045835;28;20295;-66
2021/05/28 07:50:14;;;;;;;;;;;12.20;88.00;;;;;;5036045;28;20301;-66
2021/05/28 07:52:40;;;;;;;;;;;12.30;87.90;;;;;;5049101;28;19927;-67
2021/05/28 07:55:06;;;;;;;;;;;12.40;87.50;;;;;;5029940;28;19925;-67
2021/05/28 07:57:32;;;;;;;;;;;12.60;87.40;;;;;;5047643;28;19917;-66
2021/05/28 07:59:58;;;;;;;;;;;12.80;88.40;;;;;;5040817;28;19924;-67
2021/05/28 08:02:25;;;;;;;;;;;13.10;88.20;;;;;;5050789;28;19952;-67
2021/05/28 08:04:54;;;;;;;;;;;13.30;86.60;;;;;;5034396;28;20117;-67
2021/05/28 08:07:20;;;;;;;;;;;13.30;86.20;;;;;;5050742;28;19920;-67
2021/05/28 08:09:48;;;;;;;;;;;13.20;84.90;;;;;;5036168;28;19928;-67
2021/05/28 08:12:14;;;;;;;;;;;13.20;85.40;;;;;;5049428;28;20001;-67
2021/05/28 08:14:40;;;;;;;;;;;13.20;85.90;;;;;;5035843;28;20021;-67
2021/05/28 08:17:06;;;;;;;;;;;13.40;86.00;;;;;;5044165;28;19925;-69
2021/05/28 08:19:31;;;;;;;;;;;13.90;87.20;;;;;;5033956;28;19921;-66
2021/05/28 08:21:57;;;;;;;;;;;15.30;90.40;;;;;;5049025;28;19925;-66
2021/05/28 08:24:24;;;;;;;;;;;15.90;86.40;;;;;;5040178;28;19925;-69
2021/05/28 08:26:50;;;;;;;;;;;15.80;82.00;;;;;;5057715;28;20007;-68
2021/05/28 08:29:16;;;;;;;;;;;15.50;81.50;;;;;;5046006;28;20447;-69
2021/05/28 08:31:42;;;;;;;;;;;15.40;81.10;;;;;;5037727;28;19920;-68
2021/05/28 08:34:07;;;;;;;;;;;15.20;80.50;;;;;;5039874;28;20393;-69
2021/05/28 08:36:33;;;;;;;;;;;15.50;82.80;;;;;;5048023;28;19992;-68
2021/05/28 08:38:59;;;;;;;;;;;17.50;90.40;;;;;;5034144;28;19939;-68
2021/05/28 08:41:26;;;;;;;;;;;19.00;86.10;;;;;;5041963;28;19932;-68
2021/05/28 08:43:51;;;;;;;;;;;19.30;79.60;;;;;;5035653;28;19918;-68
2021/05/28 08:46:18;;;;;;;;;;;19.20;74.90;;;;;;5047553;28;19928;-69
2021/05/28 08:48:44;;;;;;;;;;;19.10;75.60;;;;;;5061656;22;19924;-72
2021/05/28 08:51:09;;;;;;;;;;;18.90;73.90;;;;;;5033419;28;19916;-72
2021/05/28 08:53:36;;;;;;;;;;;18.70;73.00;;;;;;5047185;28;19978;-72
2021/05/28 08:56:01;;;;;;;;;;;19.60;75.40;;;;;;5033374;28;20090;-72
2021/05/28 08:58:28;;;;;;;;;;;20.70;74.90;;;;;;5033650;28;19992;-72
2021/05/28 09:00:55;;;;;;;;;;;21.40;71.60;;;;;;5028009;28;20000;-72
2021/05/28 09:03:20;;;;;;;;;;;21.30;66.10;;;;;;5009453;28;19933;-72
2021/05/28 09:05:47;;;;;;;;;;;20.60;63.90;;;;;;5030493;28;19917;-72
2021/05/28 09:08:13;;;;;;;;;;;20.10;64.50;;;;;;5028543;28;19929;-74
2021/05/28 09:10:40;;;;;;;;;;;19.50;63.60;;;;;;5023414;28;19939;-73
2021/05/28 09:13:05;;;;;;;;;;;19.00;63.50;;;;;;5017243;28;19917;-72
2021/05/28 09:15:31;;;;;;;;;;;18.70;64.90;;;;;;5027729;28;19917;-75
2021/05/28 09:17:57;;;;;;;;;;;18.70;65.70;;;;;;5013427;28;19917;-73
2021/05/28 09:20:24;;;;;;;;;;;18.90;66.10;;;;;;5022429;28;19953;-75
2021/05/28 09:23:09;;;;;;;;;;;18.90;63.80;;;;;;5019241;28;19921;-74
2021/05/28 09:25:53;;;;;;;;;;;18.80;64.20;;;;;;5025458;28;20276;-75
2021/05/28 09:28:19;;;;;;;;;;;18.50;63.30;;;;;;5022980;28;19921;-74
2021/05/28 09:30:55;;;;;;;;;;;18.10;62.60;;;;;;5013731;28;20335;-74
2021/05/28 09:33:21;;;;;;;;;;;17.50;62.00;;;;;;4997053;28;19917;-73
2021/05/28 09:35:51;;;;;;;;;;;16.70;62.60;;;;;;5030786;28;19917;-75
2021/05/28 09:38:20;;;;;;;;;;;16.20;63.70;;;;;;5031057;28;19992;-74
2021/05/28 09:40:46;;;;;;;;;;;15.80;65.20;;;;;;5030743;28;20008;-74
2021/05/28 09:43:14;;;;;;;;;;;15.80;66.90;;;;;;5030669;28;20024;-74
2021/05/28 09:45:40;;;;;;;;;;;16.10;67.40;;;;;;5030455;28;19924;-72
2021/05/28 09:48:15;;;;;;;;;;;17.30;71.30;;;;;;5030513;28;20368;-73
2021/05/28 09:50:45;;;;;;;;;;;19.70;71.30;;;;;;5012930;28;20316;-75
2021/05/28 09:53:30;;;;;;;;;;;22.60;70.20;;;;;;5029322;28;19921;-74
2021/05/28 09:55:57;;;;;;;;;;;23.50;63.10;;;;;;5028631;28;19971;-74
2021/05/28 09:58:23;;;;;;;;;;;23.20;59.40;;;;;;5030683;28;20012;-74
2021/05/28 10:00:49;;;;;;;;;;;22.60;57.00;;;;;;5030967;28;19948;-72
2021/05/28 10:03:22;;;;;;;;;;;21.80;56.80;;;;;;5030259;28;19921;-73
2021/05/28 10:05:51;;;;;;;;;;;21.00;56.40;;;;;;5030912;28;19921;-73
2021/05/28 10:08:19;;;;;;;;;;;20.30;56.60;;;;;;5029160;28;20369;-73
2021/05/28 10:10:46;;;;;;;;;;;19.60;56.60;;;;;;5030680;28;19924;-73
2021/05/28 10:13:13;;;;;;;;;;;18.90;57.20;;;;;;5030785;28;19917;-74
2021/05/28 10:15:42;;;;;;;;;;;18.40;58.10;;;;;;5029996;28;20293;-75
2021/05/28 10:18:09;;;;;;;;;;;18.00;58.60;;;;;;5028303;28;19921;-73
2021/05/28 10:20:36;;;;;;;;;;;17.60;58.90;;;;;;5028286;28;19914;-71
2021/05/28 10:23:01;;;;;;;;;;;17.20;59.80;;;;;;5028232;28;20020;-75
2021/05/28 10:25:27;;;;;;;;;;;17.10;60.60;;;;;;5024247;28;20044;-72
2021/05/28 10:27:54;;;;;;;;;;;17.20;61.50;;;;;;5033472;28;19917;-74
2021/05/28 10:30:20;;;;;;;;;;;17.60;62.60;;;;;;5034071;28;19994;-72
2021/05/28 10:33:12;;;;;;;;;;;18.80;63.80;;;;;;5033284;28;19998;-74
2021/05/28 10:35:45;;;;;;;;;;;21.30;64.40;;;;;;5030579;28;19917;-73
2021/05/28 10:38:29;;;;;;;;;;;22.80;61.40;;;;;;5031632;28;19924;-74
2021/05/28 10:41:04;;;;;;;;;;;22.40;56.10;;;;;;5016276;28;19918;-73
2021/05/28 10:43:30;;;;;;;;;;;21.30;55.10;;;;;;5031893;28;19921;-73
2021/05/28 10:46:03;;;;;;;;;;;21.10;57.20;;;;;;5032434;28;19978;-73
2021/05/28 10:48:41;;;;;;;;;;;21.90;58.90;;;;;;5032074;28;19921;-73
2021/05/28 10:51:13;;;;;;;;;;;22.30;57.00;;;;;;5032601;28;19925;-73
2021/05/28 10:53:39;;;;;;;;;;;22.70;55.40;;;;;;5031262;28;19929;-73
2021/05/28 10:56:09;;;;;;;;;;;22.50;53.50;;;;;;5030003;28;19999;-74
2021/05/28 10:58:54;;;;;;;;;;;23.10;55.70;;;;;;5031513;28;19924;-73
2021/05/28 11:01:34;;;;;;;;;;;22.80;52.50;;;;;;5032259;28;19970;-72
2021/05/28 11:04:04;;;;;;;;;;;22.30;52.40;;;;;;5014039;28;20293;-73
2021/05/28 11:06:30;;;;;;;;;;;22.60;53.40;;;;;;5014651;28;19921;-73
2021/05/28 11:09:05;;;;;;;;;;;22.20;51.30;;;;;;5014718;28;24913;-74
2021/05/28 11:11:41;;;;;;;;;;;21.30;51.10;;;;;;5032771;28;19921;-73
2021/05/28 11:14:13;;;;;;;;;;;20.60;53.00;;;;;;5031186;28;19917;-75
2021/05/28 11:17:05;;;;;;;;;;;20.30;53.20;;;;;;5014733;28;19940;-74
2021/05/28 11:19:32;;;;;;;;;;;20.20;54.20;;;;;;5032755;28;19917;-74
2021/05/28 11:22:00;;;;;;;;;;;20.20;54.70;;;;;;5015654;28;19932;-74
2021/05/28 11:24:54;;;;;;;;;;;20.60;55.30;;;;;;5032430;28;20324;-73
2021/05/28 11:27:20;;;;;;;;;;;21.10;54.80;;;;;;5032593;28;19917;-71
2021/05/28 11:29:46;;;;;;;;;;;21.20;53.80;;;;;;5033129;28;19917;-74
2021/05/28 11:32:30;;;;;;;;;;;21.30;53.50;;;;;;5015288;28;19916;-74
2021/05/28 11:35:13;;;;;;;;;;;21.20;52.60;;;;;;5031626;28;19923;-73
2021/05/28 11:38:00;;;;;;;;;;;20.90;52.70;;;;;;5031160;28;19944;-74
2021/05/28 11:40:44;;;;;;;;;;;21.20;54.70;;;;;;5032433;28;20404;-73
2021/05/28 11:43:17;;;;;;;;;;;21.30;53.20;;;;;;5030337;28;19928;-74
2021/05/28 11:45:45;;;;;;;;;;;20.90;52.40;;;;;;5028613;28;20339;-72
2021/05/28 11:48:12;;;;;;;;;;;20.40;52.50;;;;;;5008814;28;19929;-73
2021/05/28 11:50:41;;;;;;;;;;;19.90;53.10;;;;;;5030791;28;20385;-74
2021/05/28 11:53:08;;;;;;;;;;;19.60;54.50;;;;;;4998031;28;19929;-74
2021/05/28 11:55:41;;;;;;;;;;;19.80;55.00;;;;;;5030525;28;19972;-73
2021/05/28 11:58:07;;;;;;;;;;;20.10;55.90;;;;;;5030968;28;19917;-74
2021/05/28 12:00:33;;;;;;;;;;;20.50;55.30;;;;;;5031889;28;19917;-75
2021/05/28 12:02:58;;;;;;;;;;;20.70;54.50;;;;;;5029706;28;19933;-73
2021/05/28 12:05:29;;;;;;;;;;;20.80;53.60;;;;;;5029557;28;19935;-73
2021/05/28 12:07:56;;;;;;;;;;;20.50;52.90;;;;;;5030433;28;20000;-74
2021/05/28 12:10:22;;;;;;;;;;;20.20;53.90;;;;;;5014369;28;19967;-74
2021/05/28 12:12:51;;;;;;;;;;;20.00;54.30;;;;;;5013715;28;20269;-73
2021/05/28 12:15:18;;;;;;;;;;;19.80;53.70;;;;;;5031878;28;19917;-73
2021/05/28 12:17:44;;;;;;;;;;;19.60;54.30;;;;;;5031470;28;20061;-74
2021/05/28 12:20:14;;;;;;;;;;;19.70;55.00;;;;;;5030856;28;20000;-74
2021/05/28 12:22:58;;;;;;;;;;;19.80;54.50;;;;;;5030161;28;19921;-72
2021/05/28 12:25:24;;;;;;;;;;;19.80;54.40;;;;;;5028623;28;20000;-74
2021/05/28 12:27:50;;;;;;;;;;;19.70;54.30;;;;;;5031532;28;20003;-72
2021/05/28 12:30:16;;;;;;;;;;;19.50;53.60;;;;;;5029881;28;19925;-72
2021/05/28 12:32:42;;;;;;;;;;;19.40;54.30;;;;;;5012024;28;19917;-73
2021/05/28 12:35:08;;;;;;;;;;;19.40;55.10;;;;;;5030494;28;20004;-73
2021/05/28 12:37:34;;;;;;;;;;;19.50;55.20;;;;;;5012791;28;19917;-75
2021/05/28 12:40:09;;;;;;;;;;;19.70;55.30;;;;;;4996574;28;19917;-74
2021/05/28 12:42:34;;;;;;;;;;;19.70;54.70;;;;;;5013365;28;19925;-74
2021/05/28 12:45:11;;;;;;;;;;;19.80;54.40;;;;;;5027996;28;20407;-73
2021/05/28 12:47:44;;;;;;;;;;;19.70;53.90;;;;;;5011125;28;20265;-73
2021/05/28 12:50:34;;;;;;;;;;;19.60;54.20;;;;;;5026505;28;19994;-75
2021/05/28 12:53:08;;;;;;;;;;;19.60;53.80;;;;;;5012647;28;20405;-73
2021/05/28 12:55:35;;;;;;;;;;;19.50;54.10;;;;;;5030711;28;19928;-73
2021/05/28 12:58:01;;;;;;;;;;;19.40;54.90;;;;;;4996823;28;19918;-74
2021/05/28 13:00:30;;;;;;;;;;;19.50;55.00;;;;;;5031081;28;19952;-74
2021/05/28 13:02:56;;;;;;;;;;;19.40;53.70;;;;;;5030899;28;19961;-74
2021/05/28 13:05:32;;;;;;;;;;;19.20;54.70;;;;;;5012909;28;19949;-74
2021/05/28 13:07:58;;;;;;;;;;;19.10;54.90;;;;;;5013498;28;19917;-72
2021/05/28 13:10:25;;;;;;;;;;;19.00;54.70;;;;;;5030689;28;19921;-75
2021/05/28 13:12:51;;;;;;;;;;;18.80;54.80;;;;;;5031000;28;19917;-73
2021/05/28 13:15:26;;;;;;;;;;;18.70;55.30;;;;;;5030935;28;19925;-73
2021/05/28 13:17:55;;;;;;;;;;;18.50;56.20;;;;;;5030872;28;19921;-74
2021/05/28 13:20:22;;;;;;;;;;;18.50;56.60;;;;;;5029533;28;19948;-74
2021/05/28 13:22:49;;;;;;;;;;;18.60;56.70;;;;;;5026257;28;20581;-73
2021/05/28 13:25:27;;;;;;;;;;;18.60;56.60;;;;;;5030304;28;19972;-75
2021/05/28 13:28:00;;;;;;;;;;;18.60;57.20;;;;;;5029350;28;20009;-73
2021/05/28 13:30:35;;;;;;;;;;;18.60;57.10;;;;;;5031130;28;19921;-73
2021/05/28 13:33:15;;;;;;;;;;;18.60;57.20;;;;;;5012844;28;20403;-74
2021/05/28 13:35:41;;;;;;;;;;;18.50;56.80;;;;;;5031009;28;19967;-74
2021/05/28 13:38:07;;;;;;;;;;;18.50;57.30;;;;;;5028044;28;19917;-73
2021/05/28 13:40:32;;;;;;;;;;;18.30;57.20;;;;;;5013468;28;19925;-73
2021/05/28 13:42:58;;;;;;;;;;;18.10;56.90;;;;;;5012528;28;19921;-72
2021/05/28 13:45:24;;;;;;;;;;;18.00;57.70;;;;;;5013551;28;20404;-73
2021/05/28 13:47:49;;;;;;;;;;;18.20;58.10;;;;;;5030826;28;19921;-74
2021/05/28 13:50:15;;;;;;;;;;;18.30;58.60;;;;;;5014995;28;19924;-73
2021/05/28 13:52:40;;;;;;;;;;;18.60;58.60;;;;;;5032572;28;19953;-72
2021/05/28 13:55:06;;;;;;;;;;;18.60;57.10;;;;;;5033289;28;19917;-72
2021/05/28 13:57:32;;;;;;;;;;;18.50;57.50;;;;;;5032868;28;19932;-72
2021/05/28 13:59:57;;;;;;;;;;;18.40;57.80;;;;;;5001281;28;19992;-72
2021/05/28 14:02:23;;;;;;;;;;;18.30;57.70;;;;;;5034394;28;19933;-73
2021/05/28 14:04:49;;;;;;;;;;;18.20;57.40;;;;;;5025434;28;19917;-75
2021/05/28 14:07:15;;;;;;;;;;;18.00;57.70;;;;;;5024685;28;19917;-73
2021/05/28 14:09:40;;;;;;;;;;;17.90;58.40;;;;;;5028354;28;19925;-75
2021/05/28 14:12:06;;;;;;;;;;;17.90;58.10;;;;;;5033441;28;20321;-74
2021/05/28 14:14:32;;;;;;;;;;;17.70;58.50;;;;;;5033616;28;20266;-74
2021/05/28 14:17:01;;;;;;;;;;;17.60;59.20;;;;;;5032981;28;19924;-74
2021/05/28 14:19:26;;;;;;;;;;;17.60;59.00;;;;;;5033983;28;20004;-73
2021/05/28 14:21:52;;;;;;;;;;;17.70;59.70;;;;;;5024152;28;19929;-73
2021/05/28 14:24:17;;;;;;;;;;;17.80;60.00;;;;;;5012874;28;19917;-73
2021/05/28 14:26:43;;;;;;;;;;;17.90;59.50;;;;;;5040726;28;19921;-74
2021/05/28 14:29:09;;;;;;;;;;;17.70;58.90;;;;;;5033575;28;19917;-73